createdAt,value
2019-06-08T00:00:27.290Z,97.83
2019-06-08T00:03:32.789Z,103.50
2019-06-08T00:06:38.318Z,104.72
2019-06-08T00:09:43.585Z,109.90
2019-06-08T00:12:48.743Z,111.40
2019-06-08T00:15:55.814Z,110.97
2019-06-08T00:19:10.560Z,106.13
2019-06-08T00:22:25.553Z,110.15
2019-06-08T00:25:31.079Z,110.02
2019-06-08T00:28:36.247Z,111.74
2019-06-08T00:31:41.509Z,113.21
2019-06-08T00:34:46.683Z,112.11
2019-06-08T00:37:51.962Z,105.51
2019-06-08T00:40:57.160Z,107.39
2019-06-08T00:44:02.310Z,109.76
2019-06-08T00:47:07.653Z,110.63
2019-06-08T00:50:13.041Z,107.44
2019-06-08T00:53:19.739Z,108.19
2019-06-08T00:56:26.021Z,106.64
2019-06-08T00:59:32.298Z,106.36
2019-06-08T01:02:41.708Z,101.95
2019-06-08T01:05:46.913Z,102.27
2019-06-08T01:08:52.129Z,104.10
2019-06-08T01:11:57.285Z,107.54
2019-06-08T01:15:02.793Z,109.11
2019-06-08T01:18:08.247Z,105.14
2019-06-08T01:21:13.469Z,106.51
2019-06-08T01:24:19.653Z,106.23
2019-06-08T01:27:26.089Z,98.15
2019-06-08T01:30:31.795Z,96.84
2019-06-08T01:33:36.941Z,94.88
2019-06-08T01:36:42.262Z,93.79
2019-06-08T01:39:47.440Z,96.15
2019-06-08T01:42:54.259Z,94.74
2019-06-08T01:46:01.134Z,98.60
2019-06-08T01:49:06.358Z,103.26
2019-06-08T01:52:11.504Z,103.20
2019-06-08T01:55:16.648Z,101.46
2019-06-08T01:58:27.424Z,105.03
2019-06-08T02:01:34.237Z,99.76
2019-06-08T02:04:39.605Z,103.10
2019-06-08T02:07:44.794Z,99.55
2019-06-08T02:10:49.878Z,97.69
2019-06-08T02:13:55.019Z,92.48
2019-06-08T02:17:01.260Z,94.14
2019-06-08T02:20:08.118Z,97.20
2019-06-08T02:23:13.284Z,97.55
2019-06-08T02:26:18.470Z,94.21
2019-06-08T02:29:23.670Z,97.77
2019-06-08T02:32:31.108Z,92.26
2019-06-08T02:35:37.657Z,99.11
2019-06-08T02:38:42.629Z,101.06
2019-06-08T02:41:47.799Z,93.83
2019-06-08T02:44:53.975Z,96.19
2019-06-08T02:48:00.191Z,97.23
2019-06-08T02:51:07.030Z,93.91
2019-06-08T02:54:12.760Z,94.85
2019-06-08T02:57:19.932Z,95.19
2019-06-08T03:00:25.259Z,93.13
2019-06-08T03:03:33.730Z,93.78
2019-06-08T03:06:43.086Z,92.47
2019-06-08T03:09:50.564Z,92.96
2019-06-08T03:12:57.009Z,90.36
2019-06-08T03:16:02.249Z,91.35
2019-06-08T03:19:21.059Z,91.36
2019-06-08T03:22:14.256Z,93.03
2019-06-08T03:25:19.409Z,94.40
2019-06-08T03:28:24.967Z,92.32
2019-06-08T03:31:30.091Z,92.33
2019-06-08T03:34:39.686Z,93.34
2019-06-08T03:37:43.959Z,92.15
2019-06-08T03:40:49.051Z,92.62
2019-06-08T03:43:55.260Z,89.65
2019-06-08T03:47:00.475Z,87.48
2019-06-08T03:50:06.070Z,85.50
2019-06-08T03:53:11.215Z,85.51
2019-06-08T03:56:17.194Z,81.61
2019-06-08T03:59:22.415Z,84.37
2019-06-08T04:02:27.525Z,84.70
2019-06-08T04:05:32.689Z,84.12
2019-06-08T04:08:38.447Z,84.24
2019-06-08T04:11:46.587Z,83.70
2019-06-08T04:14:51.452Z,83.18
2019-06-08T04:17:56.615Z,82.31
2019-06-08T04:21:01.776Z,82.09
2019-06-08T04:24:06.943Z,81.81
2019-06-08T04:27:12.106Z,80.92
2019-06-08T04:30:17.484Z,76.49
2019-06-08T04:33:22.685Z,74.33
2019-06-08T04:36:27.939Z,76.01
2019-06-08T04:39:33.172Z,78.22
2019-06-08T04:42:39.331Z,75.67
2019-06-08T04:45:45.894Z,75.55
2019-06-08T04:48:51.527Z,75.06
2019-06-08T04:51:56.740Z,73.13
2019-06-08T04:55:01.997Z,66.28
2019-06-08T04:58:08.356Z,57.70
2019-06-08T05:01:13.557Z,51.99
2019-06-08T05:04:18.692Z,47.23
2019-06-08T05:07:24.016Z,45.62
2019-06-08T05:10:29.292Z,45.32
2019-06-08T05:13:34.510Z,45.53
2019-06-08T05:16:40.933Z,42.40
2019-06-08T05:19:47.434Z,43.05
2019-06-08T05:22:52.742Z,40.21
2019-06-08T05:25:57.950Z,37.32
2019-06-08T05:29:03.170Z,37.84
2019-06-08T05:32:08.469Z,37.32
2019-06-08T05:35:13.897Z,41.99
2019-06-08T05:38:19.133Z,39.34
2019-06-08T05:41:25.591Z,37.80
2019-06-08T05:44:30.748Z,41.27
2019-06-08T05:47:35.937Z,37.72
2019-06-08T05:50:56.880Z,37.70
2019-06-08T05:53:47.971Z,40.91
2019-06-08T05:56:53.126Z,40.73
2019-06-08T05:59:58.382Z,42.36
2019-06-08T06:03:03.657Z,40.27
2019-06-08T06:06:08.844Z,43.18
2019-06-08T06:09:13.966Z,42.66
2019-06-08T06:12:19.226Z,45.62
2019-06-08T06:15:24.361Z,44.17
2019-06-08T06:18:29.542Z,47.12
2019-06-08T06:21:34.671Z,49.51
2019-06-08T06:24:41.723Z,52.63
2019-06-08T06:27:47.620Z,52.62
2019-06-08T06:30:53.030Z,53.10
2019-06-08T06:33:58.264Z,52.57
2019-06-08T06:37:03.530Z,54.62
2019-06-08T06:40:10.172Z,53.23
2019-06-08T06:43:15.311Z,54.44
2019-06-08T06:46:20.559Z,54.84
2019-06-08T06:49:25.779Z,56.19
2019-06-08T06:52:30.990Z,54.63
2019-06-08T06:55:36.143Z,55.57
2019-06-08T06:58:41.346Z,54.99
2019-06-08T07:01:47.527Z,54.81
2019-06-08T07:04:54.196Z,54.54
2019-06-08T07:07:59.635Z,53.76
2019-06-08T07:11:04.799Z,51.19
2019-06-08T07:14:09.987Z,48.73
2019-06-08T07:17:15.119Z,46.87
2019-06-08T07:20:20.270Z,50.14
2019-06-08T07:23:25.466Z,48.79
2019-06-08T07:26:30.662Z,51.99
2019-06-08T07:29:35.921Z,50.71
2019-06-08T07:32:41.085Z,52.49
2019-06-08T07:35:47.001Z,50.10
2019-06-08T07:38:55.653Z,49.34
2019-06-08T07:42:00.227Z,49.87
2019-06-08T07:45:05.830Z,49.18
2019-06-08T07:48:11.042Z,50.90
2019-06-08T07:51:16.221Z,51.32
2019-06-08T07:54:21.412Z,52.58
2019-06-08T07:57:26.567Z,52.23
2019-06-08T08:00:31.861Z,51.06
2019-06-08T08:03:36.996Z,52.55
2019-06-08T08:06:42.187Z,52.12
2019-06-08T08:09:48.627Z,51.29
2019-06-08T08:12:54.769Z,50.03
2019-06-08T08:16:00.681Z,48.69
2019-06-08T08:19:06.104Z,49.88
2019-06-08T08:22:22.084Z,49.23
2019-06-08T08:25:19.910Z,50.14
2019-06-08T08:28:25.077Z,49.07
2019-06-08T08:31:31.497Z,51.61
2019-06-08T08:34:38.182Z,52.44
2019-06-08T08:37:44.542Z,53.23
2019-06-08T08:40:51.267Z,51.38
2019-06-08T08:44:00.820Z,51.72
2019-06-08T08:47:03.698Z,54.05
2019-06-08T08:50:10.230Z,52.30
2019-06-08T08:53:17.884Z,53.44
2019-06-08T08:56:22.475Z,54.50
2019-06-08T08:59:28.137Z,52.88
2019-06-08T09:02:33.367Z,53.39
2019-06-08T09:05:38.656Z,52.42
2019-06-08T09:08:43.849Z,52.22
2019-06-08T09:11:51.732Z,51.29
2019-06-08T09:15:00.207Z,51.20
2019-06-08T09:18:04.231Z,52.79
2019-06-08T09:21:09.550Z,53.06
2019-06-08T09:24:14.868Z,53.02
2019-06-08T09:27:20.021Z,53.53
2019-06-08T09:30:27.397Z,53.35
2019-06-08T09:33:32.123Z,53.13
2019-06-08T09:36:37.643Z,52.72
2019-06-08T09:39:44.207Z,53.16
2019-06-08T09:42:51.440Z,53.59
2019-06-08T09:46:00.528Z,54.32
2019-06-08T09:49:06.492Z,53.30
2019-06-08T09:52:11.162Z,54.81
2019-06-08T09:55:18.117Z,54.76
2019-06-08T09:58:23.252Z,55.03
2019-06-08T10:01:28.766Z,54.34
2019-06-08T10:04:33.988Z,54.68
2019-06-08T10:07:39.284Z,55.31
2019-06-08T10:10:44.511Z,55.34
2019-06-08T10:13:49.746Z,53.08
2019-06-08T10:16:56.245Z,52.56
2019-06-08T10:20:03.464Z,53.04
2019-06-08T10:23:27.166Z,50.86
2019-06-08T10:26:17.851Z,52.50
2019-06-08T10:29:22.781Z,52.38
2019-06-08T10:32:28.316Z,55.53
2019-06-08T10:35:33.726Z,52.99
2019-06-08T10:38:41.183Z,52.32
2019-06-08T10:41:51.259Z,52.16
2019-06-08T10:44:53.616Z,53.28
2019-06-08T10:48:00.821Z,53.02
2019-06-08T10:51:07.618Z,52.87
2019-06-08T10:54:12.749Z,53.54
2019-06-08T10:57:18.318Z,51.93
2019-06-08T11:00:24.925Z,50.27
2019-06-08T11:03:30.711Z,49.78
2019-06-08T11:06:39.924Z,51.45
2019-06-08T11:09:42.914Z,50.60
2019-06-08T11:12:48.611Z,50.99
2019-06-08T11:15:53.908Z,49.57
2019-06-08T11:19:01.058Z,48.39
2019-06-08T11:22:11.834Z,48.55
2019-06-08T11:25:16.547Z,47.79
2019-06-08T11:28:21.696Z,49.36
2019-06-08T11:31:28.905Z,47.46
2019-06-08T11:34:33.762Z,48.16
2019-06-08T11:37:40.921Z,48.53
2019-06-08T11:40:47.849Z,50.38
2019-06-08T11:43:52.893Z,49.10
2019-06-08T11:46:58.171Z,48.40
2019-06-08T11:50:04.603Z,47.39
2019-06-08T11:53:14.151Z,47.17
2019-06-08T11:56:18.256Z,46.62
2019-06-08T11:59:24.851Z,47.33
2019-06-08T12:02:29.970Z,46.46
2019-06-08T12:05:35.157Z,45.85
2019-06-08T12:08:40.370Z,45.61
2019-06-08T12:11:47.923Z,44.95
2019-06-08T12:14:52.489Z,45.83
2019-06-08T12:17:58.726Z,45.62
2019-06-08T12:21:04.077Z,43.68
2019-06-08T12:24:10.401Z,44.82
2019-06-08T12:27:29.484Z,46.35
2019-06-08T12:30:26.262Z,46.70
2019-06-08T12:33:32.052Z,46.81
2019-06-08T12:36:37.606Z,47.55
2019-06-08T12:39:43.153Z,46.14
2019-06-08T12:42:48.359Z,45.80
2019-06-08T12:45:53.628Z,46.62
2019-06-08T12:48:58.988Z,46.88
2019-06-08T12:52:04.317Z,47.55
2019-06-08T12:55:14.701Z,47.24
2019-06-08T12:58:19.929Z,46.88
2019-06-08T13:01:23.447Z,44.83
2019-06-08T13:04:28.744Z,46.56
2019-06-08T13:07:33.918Z,44.88
2019-06-08T13:10:39.127Z,45.55
2019-06-08T13:13:48.746Z,45.06
2019-06-08T13:16:53.521Z,43.84
2019-06-08T13:19:58.797Z,46.53
2019-06-08T13:23:08.227Z,44.86
2019-06-08T13:26:15.121Z,47.42
2019-06-08T13:29:21.951Z,45.91
2019-06-08T13:32:28.583Z,48.07
2019-06-08T13:35:33.364Z,46.71
2019-06-08T13:38:38.540Z,45.78
2019-06-08T13:41:43.708Z,46.38
2019-06-08T13:44:48.892Z,46.22
2019-06-08T13:47:58.524Z,46.72
2019-06-08T13:51:02.827Z,47.87
2019-06-08T13:54:08.668Z,46.64
2019-06-08T13:57:15.017Z,47.13
2019-06-08T14:00:24.870Z,46.37
2019-06-08T14:03:30.141Z,46.33
2019-06-08T14:06:35.338Z,47.37
2019-06-08T14:09:40.468Z,46.52
2019-06-08T14:12:45.642Z,47.23
2019-06-08T14:15:50.835Z,46.67
2019-06-08T14:18:56.037Z,46.46
2019-06-08T14:22:01.270Z,48.13
2019-06-08T14:25:10.574Z,48.14
2019-06-08T14:28:13.403Z,46.41
2019-06-08T14:31:21.569Z,45.03
2019-06-08T14:34:26.895Z,46.87
2019-06-08T14:37:32.393Z,45.62
2019-06-08T14:40:38.625Z,46.50
2019-06-08T14:43:43.808Z,46.75
2019-06-08T14:46:48.967Z,45.96
2019-06-08T14:49:54.102Z,46.28
2019-06-08T14:52:59.337Z,45.69
2019-06-08T14:56:08.463Z,46.46
2019-06-08T14:59:11.433Z,46.50
2019-06-08T15:02:17.816Z,45.33
2019-06-08T15:05:23.468Z,45.60
2019-06-08T15:08:30.015Z,47.11
2019-06-08T15:11:37.952Z,46.97
2019-06-08T15:14:42.509Z,48.04
2019-06-08T15:17:47.834Z,46.55
2019-06-08T15:20:52.999Z,43.69
2019-06-08T15:23:58.288Z,44.59
2019-06-08T15:27:03.534Z,45.11
2019-06-08T15:30:08.968Z,44.31
2019-06-08T15:33:14.212Z,43.28
2019-06-08T15:36:21.727Z,43.40
2019-06-08T15:39:29.033Z,45.14
2019-06-08T15:42:33.585Z,44.59
2019-06-08T15:45:38.981Z,44.46
2019-06-08T15:48:44.144Z,43.30
2019-06-08T15:51:49.323Z,42.98
2019-06-08T15:54:54.471Z,41.89
2019-06-08T15:57:59.678Z,42.37
2019-06-08T16:01:04.840Z,43.64
2019-06-08T16:04:10.032Z,44.34
2019-06-08T16:07:16.476Z,44.79
2019-06-08T16:10:22.307Z,46.03
2019-06-08T16:13:28.515Z,44.24
2019-06-08T16:16:35.187Z,45.42
2019-06-08T16:19:40.569Z,44.99
2019-06-08T16:22:45.712Z,43.67
2019-06-08T16:25:50.903Z,44.22
2019-06-08T16:28:56.070Z,44.78
2019-06-08T16:32:01.230Z,44.81
2019-06-08T16:35:07.018Z,45.75
2019-06-08T16:38:12.295Z,46.17
2019-06-08T16:41:17.448Z,46.36
2019-06-08T16:44:22.632Z,47.42
2019-06-08T16:47:28.973Z,47.93
2019-06-08T16:50:34.382Z,48.26
2019-06-08T16:53:40.076Z,47.07
2019-06-08T16:56:45.416Z,46.54
2019-06-08T16:59:50.601Z,47.52
2019-06-08T17:02:55.867Z,46.48
2019-06-08T17:06:01.026Z,45.66
2019-06-08T17:09:08.036Z,46.26
2019-06-08T17:12:13.248Z,46.79
2019-06-08T17:15:18.723Z,47.43
2019-06-08T17:18:23.915Z,46.77
2019-06-08T17:21:30.117Z,47.77
2019-06-08T17:24:36.674Z,46.79
2019-06-08T17:27:41.999Z,48.29
2019-06-08T17:30:47.145Z,47.04
2019-06-08T17:33:53.005Z,48.07
2019-06-08T17:36:58.284Z,49.38
2019-06-08T17:40:03.597Z,52.86
2019-06-08T17:43:08.925Z,54.75
2019-06-08T17:46:14.090Z,58.40
2019-06-08T17:49:19.322Z,59.88
2019-06-08T17:52:27.720Z,60.30
2019-06-08T17:55:31.470Z,60.23
2019-06-08T17:58:37.222Z,64.29
2019-06-08T18:01:43.575Z,64.64
2019-06-08T18:04:48.875Z,63.77
2019-06-08T18:07:54.058Z,62.54
2019-06-08T18:10:59.274Z,62.22
2019-06-08T18:14:04.584Z,61.94
2019-06-08T18:17:09.805Z,63.48
2019-06-08T18:20:17.774Z,63.59
2019-06-08T18:23:22.544Z,63.90
2019-06-08T18:26:27.934Z,63.76
2019-06-08T18:29:34.526Z,65.98
2019-06-08T18:32:40.935Z,64.49
2019-06-08T18:35:49.114Z,63.24
2019-06-08T18:38:53.458Z,65.52
2019-06-08T18:41:59.093Z,64.58
2019-06-08T18:45:07.284Z,64.71
2019-06-08T18:48:11.960Z,64.66
2019-06-08T18:51:19.522Z,66.09
2019-06-08T18:54:27.597Z,65.64
2019-06-08T18:57:33.183Z,66.01
2019-06-08T19:00:43.028Z,66.73
2019-06-08T19:03:50.343Z,67.41
2019-06-08T19:06:54.244Z,65.87
2019-06-08T19:10:01.307Z,67.22
2019-06-08T19:13:08.097Z,68.26
2019-06-08T19:16:13.319Z,67.68
2019-06-08T19:19:18.843Z,69.27
2019-06-08T19:22:24.195Z,68.87
2019-06-08T19:25:31.470Z,70.25
2019-06-08T19:28:40.981Z,70.60
2019-06-08T19:31:45.391Z,70.66
2019-06-08T19:34:54.398Z,71.66
2019-06-08T19:37:58.312Z,71.93
2019-06-08T19:41:03.650Z,71.98
2019-06-08T19:44:08.843Z,72.78
2019-06-08T19:47:14.046Z,71.99
2019-06-08T19:50:19.330Z,72.20
2019-06-08T19:53:24.541Z,71.89
2019-06-08T19:56:29.731Z,72.91
2019-06-08T19:59:34.908Z,73.00
2019-06-08T20:02:40.570Z,72.53
2019-06-08T20:05:50.139Z,73.52
2019-06-08T20:08:53.402Z,74.44
2019-06-08T20:12:00.180Z,74.41
2019-06-08T20:15:08.295Z,75.55
2019-06-08T20:18:12.909Z,75.33
2019-06-08T20:21:18.244Z,76.07
2019-06-08T20:24:23.415Z,76.61
2019-06-08T20:27:28.591Z,77.42
2019-06-08T20:30:33.813Z,77.46
2019-06-08T20:33:39.050Z,77.34
2019-06-08T20:36:44.858Z,77.86
2019-06-08T20:40:03.016Z,79.23
2019-06-08T20:42:57.731Z,80.61
2019-06-08T20:46:05.349Z,81.15
2019-06-08T20:49:10.575Z,82.05
2019-06-08T20:52:17.611Z,83.74
2019-06-08T20:55:22.629Z,84.52
2019-06-08T20:58:28.309Z,84.89
2019-06-08T21:01:33.768Z,83.96
2019-06-08T21:04:38.967Z,85.11
2019-06-08T21:07:45.354Z,87.55
2019-06-08T21:10:52.939Z,90.06
2019-06-08T21:13:57.895Z,91.74
2019-06-08T21:17:03.016Z,95.31
2019-06-08T21:20:08.715Z,94.51
2019-06-08T21:23:14.018Z,95.83
2019-06-08T21:26:19.167Z,96.10
2019-06-08T21:29:26.737Z,96.66
2019-06-08T21:32:31.329Z,96.46
2019-06-08T21:35:36.501Z,95.60
2019-06-08T21:38:44.145Z,96.36
2019-06-08T21:41:52.128Z,97.14
2019-06-08T21:44:59.405Z,97.52
2019-06-08T21:48:02.532Z,98.83
2019-06-08T21:51:08.412Z,99.81
2019-06-08T21:54:13.605Z,100.14
2019-06-08T21:57:18.796Z,101.22
2019-06-08T22:00:38.668Z,101.81
2019-06-08T22:03:32.801Z,101.08
2019-06-08T22:06:38.391Z,102.89
2019-06-08T22:09:43.584Z,102.72
2019-06-08T22:12:48.775Z,102.57
2019-06-08T22:15:54.827Z,102.89
2019-06-08T22:19:00.965Z,101.98
2019-06-08T22:22:08.435Z,101.17
2019-06-08T22:25:13.240Z,101.36
2019-06-08T22:28:18.396Z,101.64
2019-06-08T22:31:23.639Z,102.21
2019-06-08T22:34:28.885Z,102.78
2019-06-08T22:37:34.075Z,100.55
2019-06-08T22:40:39.235Z,101.08
2019-06-08T22:43:44.384Z,100.60
2019-06-08T22:46:49.549Z,98.76
2019-06-08T22:49:56.906Z,98.78
2019-06-08T22:53:02.855Z,95.64
2019-06-08T22:56:08.375Z,96.54
2019-06-08T22:59:13.533Z,96.66
2019-06-08T23:02:18.690Z,95.32
2019-06-08T23:05:23.862Z,95.12
2019-06-08T23:08:29.026Z,94.62
2019-06-08T23:11:34.266Z,92.03
2019-06-08T23:14:39.587Z,92.06
2019-06-08T23:17:44.715Z,92.67
2019-06-08T23:20:49.880Z,93.80
2019-06-08T23:23:55.404Z,91.55
2019-06-08T23:27:00.586Z,93.68
2019-06-08T23:30:09.712Z,91.76
2019-06-08T23:33:12.943Z,91.62
2019-06-08T23:36:48.253Z,92.52
2019-06-08T23:39:25.149Z,94.64
2019-06-08T23:42:30.316Z,95.99
2019-06-08T23:45:37.558Z,96.78
2019-06-08T23:48:42.405Z,96.60
2019-06-08T23:51:47.626Z,96.44
2019-06-08T23:54:52.959Z,96.31
2019-06-08T23:58:00.415Z,96.56
